WetterOnline ( https://www.wetteronline.de )

Wetter aktuell Leipzig

Aktuelles Wetter: Leipzig-Holzhausen (138m)

6-stündlich | Neueste Meldungen
Ortszeit Temperatur Wetter
Mo, 28.11. 19:00 4.7° C bewölkt
Mo, 28.11. 13:00 5.7° C bedeckt
Mo, 28.11. 7:00 3.0° C wolkig
Mo, 28.11. 1:00 1.5° C bedeckt
So, 27.11. 19:00 4.7° C bedeckt
So, 27.11. 13:00 7.6° C bewölkt
So, 27.11. 7:00 1.5° C wolkig
So, 27.11. 1:00 2.3° C wolkenlos
Ortszeit Temperatur Wetter
Mo, 28.11. 22:00 4.6° C bewölkt
Mo, 28.11. 21:50 4.6° C bewölkt
Mo, 28.11. 21:40 4.6° C bedeckt
Mo, 28.11. 21:30 4.6° C bewölkt
Mo, 28.11. 21:20 4.6° C bewölkt
Mo, 28.11. 21:10 4.6° C bedeckt
Mo, 28.11. 21:00 4.0° C bewölkt
Mo, 28.11. 20:30 4.3° C bedeckt
Mo, 28.11. 20:00 4.4° C bedeckt
Mo, 28.11. 19:30 4.5° C bedeckt
Mo, 28.11. 19:00 4.7° C bewölkt
Ortszeit Relative Feuchte Sichtweite
Mo, 28.11. 19:00 80% 30 km
Mo, 28.11. 13:00 75% 30 km
Mo, 28.11. 7:00 84% 40 km
Mo, 28.11. 1:00 94% 21 km
So, 27.11. 19:00 83% 35 km
So, 27.11. 13:00 72% 45 km
So, 27.11. 7:00 96% 13 km
So, 27.11. 1:00 99% 9 km
Ortszeit Relative Feuchte Sichtweite
Mo, 28.11. 22:00 80% 29 km
Mo, 28.11. 21:50 80% -
Mo, 28.11. 21:40 80% -
Mo, 28.11. 21:30 80% 30 km
Mo, 28.11. 21:20 80% -
Mo, 28.11. 21:10 80% -
Mo, 28.11. 21:00 84% 22 km
Mo, 28.11. 20:30 82% 29 km
Mo, 28.11. 20:00 81% 30 km
Mo, 28.11. 19:30 82% 28 km
Mo, 28.11. 19:00 80% 30 km
Ortszeit Niederschlagsmenge Niederschlagsart
Mo, 28.11. 19:00 0.0 l/m2 in 12 Std. -
Mo, 28.11. 13:00 0.0 l/m2 in 6 Std. -
Mo, 28.11. 7:00 0.0 l/m2 in 12 Std. -
Mo, 28.11. 1:00 0.0 l/m2 in 6 Std. -
So, 27.11. 19:00 0.0 l/m2 in 12 Std. -
So, 27.11. 13:00 0.0 l/m2 in 6 Std. -
So, 27.11. 7:00 0.0 l/m2 in 12 Std. -
So, 27.11. 1:00 0.0 l/m2 in 6 Std. -
Ortszeit Niederschlagsmenge Niederschlagsart
Mo, 28.11. 22:00 0.0 l/m2 in 1 Std. -
Mo, 28.11. 21:50 keine Meldung -
Mo, 28.11. 21:40 keine Meldung -
Mo, 28.11. 21:30 0.0 l/m2 in 1 Std. -
Mo, 28.11. 21:20 keine Meldung -
Mo, 28.11. 21:10 keine Meldung -
Mo, 28.11. 21:00 0.0 l/m2 in 1 Std. -
Mo, 28.11. 20:30 0.0 l/m2 in 1 Std. -
Mo, 28.11. 20:00 0.0 l/m2 in 1 Std. -
Mo, 28.11. 19:30 0.0 l/m2 in 1 Std. -
Mo, 28.11. 19:00 0.0 l/m2 in 1 Std. -
Ortszeit Stärke Spitze Richtung
km/h Bft. km/h Grad Sektor
Mo, 28.11. 19:00 4 1 18 130° SO
Mo, 28.11. 13:00 7 2 14 120° SO
Mo, 28.11. 7:00 4 1 14 210° SW
Mo, 28.11. 1:00 4 1 14 130° SO
So, 27.11. 19:00 6 1 26 140° SO
So, 27.11. 13:00 7 2 22 180° S
So, 27.11. 7:00 7 2 14 190° S
So, 27.11. 1:00 7 2 11 190° S
Ortszeit Stärke Spitze Richtung
km/h Bft. km/h Grad Sektor
Mo, 28.11. 22:00 6 1 15 170° S
Mo, 28.11. 21:50 6 1 - 170° S
Mo, 28.11. 21:40 6 1 - 170° S
Mo, 28.11. 21:30 7 2 14 180° S
Mo, 28.11. 21:20 7 2 - 180° S
Mo, 28.11. 21:10 7 2 - 190° S
Mo, 28.11. 21:00 4 1 14 160° S
Mo, 28.11. 20:30 7 2 14 150° SO
Mo, 28.11. 20:00 6 1 11 150° SO
Mo, 28.11. 19:30 4 1 7 140° SO
Mo, 28.11. 19:00 4 1 11 130° SO
Ortszeit Untergrenze Bedeckung Gattung
total tief tief mittel hoch
Mo, 28.11. 19:00 1800 m 8/8 7/8 - - -
Mo, 28.11. 13:00 3300 m 8/8 8/8 - - -
Mo, 28.11. 7:00 1800 m 8/8 2/8 - - -
Mo, 28.11. 1:00 2700 m 8/8 8/8 - - -
So, 27.11. 19:00 4200 m 8/8 8/8 - - -
So, 27.11. 13:00 6600 m 8/8 7/8 - - -
So, 27.11. 7:00 10500 m 8/8 0/8 - - -
So, 27.11. 1:00 - 0/8 0/8 - - -
Ortszeit Bedeckungsgrad in Achtel und Wolkenuntergrenze
Mo, 28.11. 22:00 6(2100m) 7(2700m) 8(3300m)
Mo, 28.11. 21:50 6(2100m) 7(2700m) 8(3300m)
Mo, 28.11. 21:40 8
Mo, 28.11. 21:30 5(2100m) 7(2400m)
Mo, 28.11. 21:20 5(2100m) 7(2400m)
Mo, 28.11. 21:10 8
Mo, 28.11. 21:00 7(2400m)
Mo, 28.11. 20:30 8(2700m)
Mo, 28.11. 20:00 2(2100m) 8(2700m)
Mo, 28.11. 19:30 7(2100m) 8(2700m)
Mo, 28.11. 19:00 1(1800m) 7(2400m) 8(3300m)
Ortszeit Luftdruck NN (hPa) Tendenz (hPa in 3 Std.)
Mo, 28.11. 19:00 1015 + 0,2
Mo, 28.11. 13:00 1015 - 0,4
Mo, 28.11. 7:00 1016 - 1,4
Mo, 28.11. 1:00 1020 - 1,6
So, 27.11. 19:00 1022 - 2,0
So, 27.11. 13:00 1026 - 1,5
So, 27.11. 7:00 1029 - 0,5
So, 27.11. 1:00 1031 0,0
Ortszeit Luftdruck NN (hPa) Tendenz (hPa in 3 Std.)
Mo, 28.11. 22:00 1015 + 0,4
Mo, 28.11. 21:50 1015 keine Meldung
Mo, 28.11. 21:40 1015 keine Meldung
Mo, 28.11. 21:30 1015 + 0,3
Mo, 28.11. 21:20 1015 keine Meldung
Mo, 28.11. 21:10 1015 keine Meldung
Mo, 28.11. 21:00 1015 + 0,3
Mo, 28.11. 20:30 1015 + 0,3
Mo, 28.11. 20:00 1015 + 0,1
Mo, 28.11. 19:30 1015 + 0,1
Mo, 28.11. 19:00 1015 + 0,2
Ortszeit Schneehöhe (cm)
Mo, 28.11. 19:00 0
Mo, 28.11. 13:00 0
Mo, 28.11. 7:00 0
Mo, 28.11. 1:00 0
So, 27.11. 19:00 0
So, 27.11. 13:00 0
So, 27.11. 7:00 0
So, 27.11. 1:00 0
Ortszeit Schneehöhe (cm)
Mo, 28.11. 22:00 0
Mo, 28.11. 21:50 0
Mo, 28.11. 21:40 0
Mo, 28.11. 21:30 0
Mo, 28.11. 21:20 0
Mo, 28.11. 21:10 0
Mo, 28.11. 21:00 0
Mo, 28.11. 20:30 0
Mo, 28.11. 20:00 0
Mo, 28.11. 19:30 0
Mo, 28.11. 19:00 0
Link zu dieser Seite / Seite empfehlen

Das Wetter in ...